Corral de Bustos, Argentina
Current Conditions -  °F | °C
As of 2:00 AM on Saturday 29 Nov 2014 (Local Time) from SAAR Reporting Station
Clear Clear  
Wind Chill: 72°   Ceiling: Unl
Heat Index: 72°   Visibility: 6mi
Dew Point: 61°   Wind: 10mph
Humidity: 69%   Direction: 50°NE
Pressure: 29.74"   Gusts: NA
Location:  33.28°S, 62.2°W
Report Text: SAAR 290500Z 05009KT CAVOK 22/16 Q1007
Loading
Personal Weather Stations






























Interactive Weather Map New forecast layout! Learn more

10-Day Weather Forecast

Advertisements
Track Severe Weather on mobile